createdAt,value
2018-09-24T00:00:59.655Z,100985.56
2018-09-24T00:03:27.659Z,100992.48
2018-09-24T00:05:55.677Z,101004.33
2018-09-24T00:08:23.637Z,101013.60
2018-09-24T00:10:51.616Z,101019.38
2018-09-24T00:13:19.605Z,101018.07
2018-09-24T00:15:47.710Z,101020.69
2018-09-24T00:18:15.700Z,101035.73
2018-09-24T00:20:43.833Z,101036.47
2018-09-24T00:23:11.880Z,101040.28
2018-09-24T00:25:39.905Z,101051.77
2018-09-24T00:28:08.178Z,101056.17
2018-09-24T00:30:36.558Z,101061.58
2018-09-24T00:33:04.565Z,101066.52
2018-09-24T00:35:32.769Z,101070.20
2018-09-24T00:38:00.700Z,101067.58
2018-09-24T00:40:28.753Z,101068.84
2018-09-24T00:42:56.714Z,101080.38
2018-09-24T00:45:24.651Z,101084.18
2018-09-24T00:47:52.600Z,101086.15
2018-09-24T00:50:20.510Z,101082.41
2018-09-24T00:52:48.609Z,101087.27
2018-09-24T00:55:16.753Z,101100.35
2018-09-24T00:57:44.778Z,101104.64
2018-09-24T01:00:12.760Z,101115.18
2018-09-24T01:02:40.710Z,101114.05
2018-09-24T01:05:08.689Z,101117.90
2018-09-24T01:07:36.665Z,101120.59
2018-09-24T01:10:04.710Z,101121.16
2018-09-24T01:12:32.732Z,101128.84
2018-09-24T01:15:00.740Z,101134.61
2018-09-24T01:17:28.770Z,101134.50
2018-09-24T01:19:56.823Z,101134.44
2018-09-24T01:22:24.750Z,101139.73
2018-09-24T01:24:52.755Z,101136.11
2018-09-24T01:27:20.805Z,101144.73
2018-09-24T01:29:48.715Z,101152.82
2018-09-24T01:32:16.604Z,101159.77
2018-09-24T01:34:44.504Z,101157.32
2018-09-24T01:37:12.518Z,101158.50
2018-09-24T01:39:40.465Z,101167.66
2018-09-24T01:42:08.445Z,101170.15
2018-09-24T01:44:36.381Z,101186.68
2018-09-24T01:47:04.371Z,101183.30
2018-09-24T01:49:32.629Z,101192.79
2018-09-24T01:52:00.765Z,101200.23
2018-09-24T01:54:29.280Z,101197.55
2018-09-24T01:56:57.288Z,101200.64
2018-09-24T01:59:25.363Z,101205.27
2018-09-24T02:01:53.396Z,101211.33
2018-09-24T02:04:21.330Z,101215.02
2018-09-24T02:06:49.580Z,101215.80
2018-09-24T02:09:17.593Z,101214.08
2018-09-24T02:11:45.700Z,101221.56
2018-09-24T02:14:13.645Z,101221.56
2018-09-24T02:16:41.650Z,101230.48
2018-09-24T02:19:09.935Z,101232.93
2018-09-24T02:21:37.990Z,101238.56
2018-09-24T02:24:06.611Z,101240.10
2018-09-24T02:26:34.719Z,101246.41
2018-09-24T02:29:02.644Z,101256.09
2018-09-24T02:31:37.025Z,101259.66
2018-09-24T02:34:05.208Z,101262.03
2018-09-24T02:36:33.223Z,101264.34
2018-09-24T02:39:01.493Z,101276.95
2018-09-24T02:41:29.467Z,101272.82
2018-09-24T02:43:57.510Z,101281.88
2018-09-24T02:46:25.432Z,101292.66
2018-09-24T02:48:53.533Z,101298.29
2018-09-24T02:51:21.618Z,101299.50
2018-09-24T02:53:49.698Z,101303.95
2018-09-24T02:56:17.734Z,101301.66
2018-09-24T02:58:45.650Z,101309.98
2018-09-24T03:01:13.658Z,101315.20
2018-09-24T03:03:41.590Z,101326.03
2018-09-24T03:06:09.589Z,101326.97
2018-09-24T03:08:40.214Z,101329.74
2018-09-24T03:11:08.202Z,101338.48
2018-09-24T03:13:36.150Z,101351.66
2018-09-24T03:16:04.019Z,101353.73
2018-09-24T03:18:32.110Z,101349.56
2018-09-24T03:21:00.292Z,101350.59
2018-09-24T03:23:28.337Z,101341.42
2018-09-24T03:25:56.427Z,101352.19
2018-09-24T03:28:24.430Z,101357.48
2018-09-24T03:30:52.355Z,101363.66
2018-09-24T03:33:20.307Z,101361.10
2018-09-24T03:35:48.268Z,101375.86
2018-09-24T03:38:16.229Z,101373.09
2018-09-24T03:40:44.160Z,101376.34
2018-09-24T03:43:12.088Z,101374.25
2018-09-24T03:45:40.035Z,101380.16
2018-09-24T03:48:07.997Z,101379.33
2018-09-24T03:50:35.904Z,101381.94
2018-09-24T03:53:03.917Z,101386.16
2018-09-24T03:55:31.836Z,101383.70
2018-09-24T03:57:59.796Z,101393.75
2018-09-24T04:00:27.810Z,101393.06
2018-09-24T04:02:55.887Z,101394.98
2018-09-24T04:05:29.323Z,101409.42
2018-09-24T04:08:02.786Z,101410.81
2018-09-24T04:10:36.180Z,101409.78
2018-09-24T04:13:09.835Z,101411.08
2018-09-24T04:15:43.699Z,101406.01
2018-09-24T04:18:17.306Z,101408.71
2018-09-24T04:20:50.663Z,101412.48
2018-09-24T04:23:24.159Z,101409.41
2018-09-24T04:25:57.702Z,101415.94
2018-09-24T04:28:31.173Z,101412.95
2018-09-24T04:31:04.694Z,101426.59
2018-09-24T04:33:38.201Z,101427.58
2018-09-24T04:36:12.076Z,101416.30
2018-09-24T04:38:45.607Z,101423.81
2018-09-24T04:41:19.057Z,101430.28
2018-09-24T04:43:52.884Z,101430.43
2018-09-24T04:46:26.448Z,101434.03
2018-09-24T04:48:59.965Z,101440.00
2018-09-24T04:51:33.865Z,101440.27
2018-09-24T04:54:07.571Z,101449.03
2018-09-24T04:56:41.143Z,101455.30
2018-09-24T04:59:14.972Z,101454.92
2018-09-24T05:01:48.587Z,101460.67
2018-09-24T05:04:22.288Z,101454.86
2018-09-24T05:06:55.924Z,101460.81
2018-09-24T05:09:29.960Z,101463.80
2018-09-24T05:12:03.594Z,101471.03
2018-09-24T05:14:37.280Z,101487.44
2018-09-24T05:17:10.997Z,101485.98
2018-09-24T05:19:44.830Z,101492.98
2018-09-24T05:22:18.352Z,101487.84
2018-09-24T05:24:51.939Z,101483.36
2018-09-24T05:27:25.643Z,101496.56
2018-09-24T05:29:59.262Z,101501.66
2018-09-24T05:32:32.911Z,101502.45
2018-09-24T05:35:06.465Z,101508.69
2018-09-24T05:37:40.267Z,101511.67
2018-09-24T05:40:14.012Z,101509.84
2018-09-24T05:42:47.537Z,101513.51
2018-09-24T05:45:21.153Z,101523.09
2018-09-24T05:47:54.682Z,101533.62
2018-09-24T05:50:28.378Z,101528.53
2018-09-24T05:53:02.073Z,101533.88
2018-09-24T05:55:35.683Z,101533.70
2018-09-24T05:58:09.309Z,101544.89
2018-09-24T06:00:42.860Z,101543.30
2018-09-24T06:03:16.317Z,101538.61
2018-09-24T06:05:50.138Z,101548.78
2018-09-24T06:08:23.576Z,101547.66
2018-09-24T06:10:57.214Z,101556.52
2018-09-24T06:13:30.728Z,101553.07
2018-09-24T06:16:04.426Z,101554.03
2018-09-24T06:18:37.921Z,101556.25
2018-09-24T06:21:11.888Z,101566.56
2018-09-24T06:23:45.457Z,101573.66
2018-09-24T06:26:19.019Z,101568.07
2018-09-24T06:28:52.469Z,101572.13
2018-09-24T06:31:25.961Z,101579.44
2018-09-24T06:33:59.407Z,101575.15
2018-09-24T06:36:33.249Z,101581.92
2018-09-24T06:39:06.744Z,101587.97
2018-09-24T06:41:40.420Z,101584.22
2018-09-24T06:44:14.262Z,101588.29
2018-09-24T06:46:47.773Z,101587.45
2018-09-24T06:49:21.171Z,101596.56
2018-09-24T06:51:54.652Z,101590.59
2018-09-24T06:54:28.172Z,101607.06
2018-09-24T06:57:01.732Z,101605.20
2018-09-24T06:59:35.514Z,101588.44
2018-09-24T07:02:09.353Z,101592.62
2018-09-24T07:04:42.932Z,101600.99
2018-09-24T07:07:16.583Z,101607.88
2018-09-24T07:09:50.228Z,101615.14
2018-09-24T07:12:23.921Z,101630.12
2018-09-24T07:14:57.561Z,101630.67
2018-09-24T07:17:31.102Z,101619.13
2018-09-24T07:20:04.819Z,101617.16
2018-09-24T07:22:38.582Z,101621.74
2018-09-24T07:25:12.112Z,101615.53
2018-09-24T07:27:45.742Z,101625.83
2018-09-24T07:30:19.332Z,101629.09
2018-09-24T07:32:52.951Z,101636.27
2018-09-24T07:35:26.445Z,101648.52
2018-09-24T07:38:00.258Z,101649.16
2018-09-24T07:40:33.771Z,101665.47
2018-09-24T07:43:07.400Z,101666.08
2018-09-24T07:45:40.909Z,101668.05
2018-09-24T07:48:15.341Z,101655.66
2018-09-24T07:50:49.119Z,101675.34
2018-09-24T07:53:22.752Z,101682.97
2018-09-24T07:55:56.354Z,101679.75
2018-09-24T07:58:30.169Z,101688.35
2018-09-24T08:01:03.778Z,101678.78
2018-09-24T08:03:37.466Z,101697.26
2018-09-24T08:06:11.096Z,101690.50
2018-09-24T08:08:44.740Z,101683.11
2018-09-24T08:11:18.267Z,101672.26
2018-09-24T08:13:51.899Z,101683.86
2018-09-24T08:16:25.455Z,101688.81
2018-09-24T08:18:59.148Z,101692.20
2018-09-24T08:21:32.614Z,101695.39
2018-09-24T08:24:06.272Z,101707.36
2018-09-24T08:26:39.952Z,101706.62
2018-09-24T08:29:13.732Z,101712.42
2018-09-24T08:31:47.458Z,101714.05
2018-09-24T08:34:21.127Z,101698.17
2018-09-24T08:36:54.764Z,101695.81
2018-09-24T08:39:28.282Z,101709.30
2018-09-24T08:42:01.806Z,101727.72
2018-09-24T08:44:35.650Z,101740.70
2018-09-24T08:47:09.330Z,101766.95
2018-09-24T08:49:42.847Z,101775.78
2018-09-24T08:52:16.436Z,101771.09
2018-09-24T08:54:50.302Z,101774.84
2018-09-24T08:57:24.042Z,101775.59
2018-09-24T08:59:57.703Z,101774.30
2018-09-24T09:02:31.240Z,101773.66
2018-09-24T09:05:04.897Z,101770.82
2018-09-24T09:07:38.499Z,101779.50
2018-09-24T09:10:12.112Z,101779.81
2018-09-24T09:12:45.844Z,101788.30
2018-09-24T09:15:19.478Z,101773.53
2018-09-24T09:17:53.146Z,101775.69
2018-09-24T09:20:26.801Z,101776.02
2018-09-24T09:23:00.567Z,101777.53
2018-09-24T09:25:34.001Z,101781.63
2018-09-24T09:28:07.421Z,101785.52
2018-09-24T09:30:40.883Z,101770.59
2018-09-24T09:33:14.624Z,101780.11
2018-09-24T09:35:48.364Z,101789.05
2018-09-24T09:38:21.841Z,101790.78
2018-09-24T09:40:55.432Z,101788.81
2018-09-24T09:43:29.060Z,101797.05
2018-09-24T09:46:02.709Z,101792.33
2018-09-24T09:48:36.164Z,101776.89
2018-09-24T09:51:09.828Z,101798.25
2018-09-24T09:53:43.509Z,101794.84
2018-09-24T09:56:17.316Z,101805.51
2018-09-24T09:58:50.846Z,101799.28
2018-09-24T10:01:24.574Z,101796.14
2018-09-24T10:03:58.246Z,101797.86
2018-09-24T10:06:31.934Z,101793.42
2018-09-24T10:09:05.836Z,101799.30
2018-09-24T10:11:40.046Z,101792.69
2018-09-24T10:14:13.675Z,101801.17
2018-09-24T10:16:47.544Z,101801.48
2018-09-24T10:19:21.156Z,101792.83
2018-09-24T10:21:54.843Z,101788.39
2018-09-24T10:24:28.368Z,101782.91
2018-09-24T10:27:02.004Z,101777.11
2018-09-24T10:29:35.607Z,101788.01
2018-09-24T10:32:09.347Z,101788.30
2018-09-24T10:34:42.935Z,101790.13
2018-09-24T10:37:16.607Z,101778.95
2018-09-24T10:39:50.338Z,101784.77
2018-09-24T10:42:23.915Z,101787.45
2018-09-24T10:44:57.596Z,101794.25
2018-09-24T10:47:31.067Z,101785.89
2018-09-24T10:50:04.629Z,101784.73
2018-09-24T10:52:38.359Z,101810.50
2018-09-24T10:55:11.975Z,101790.91
2018-09-24T10:57:45.935Z,101791.82
2018-09-24T11:00:19.622Z,101777.62
2018-09-24T11:02:53.127Z,101782.93
2018-09-24T11:05:26.827Z,101758.33
2018-09-24T11:08:00.528Z,101754.95
2018-09-24T11:10:34.127Z,101746.91
2018-09-24T11:13:07.787Z,101769.77
2018-09-24T11:15:41.630Z,101765.53
2018-09-24T11:18:15.195Z,101754.59
2018-09-24T11:20:48.906Z,101768.22
2018-09-24T11:23:22.526Z,101778.31
2018-09-24T11:25:56.227Z,101794.08
2018-09-24T11:28:29.827Z,101794.93
2018-09-24T11:31:03.420Z,101795.41
2018-09-24T11:33:37.047Z,101783.63
2018-09-24T11:36:12.055Z,101784.45
2018-09-24T11:38:45.667Z,101774.70
2018-09-24T11:41:19.355Z,101763.50
2018-09-24T11:43:52.876Z,101765.29
2018-09-24T11:46:27.390Z,101772.00
2018-09-24T11:49:01.096Z,101777.72
2018-09-24T11:51:34.766Z,101793.36
2018-09-24T11:54:08.326Z,101804.50
2018-09-24T11:56:42.090Z,101826.10
2018-09-24T11:59:16.566Z,101851.73
2018-09-24T12:01:50.134Z,101862.02
2018-09-24T12:04:23.686Z,101850.88
2018-09-24T12:06:57.275Z,101836.26
2018-09-24T12:09:30.860Z,101834.25
2018-09-24T12:12:04.515Z,101821.45
2018-09-24T12:14:38.116Z,101815.56
2018-09-24T12:17:11.852Z,101820.17
2018-09-24T12:19:45.515Z,101809.81
2018-09-24T12:22:19.055Z,101823.02
2018-09-24T12:24:52.775Z,101818.12
2018-09-24T12:27:26.436Z,101823.91
2018-09-24T12:29:59.987Z,101830.01
2018-09-24T12:32:33.675Z,101848.88
2018-09-24T12:35:07.275Z,101854.83
2018-09-24T12:37:40.955Z,101853.14
2018-09-24T12:40:14.716Z,101848.44
2018-09-24T12:42:48.371Z,101843.00
2018-09-24T12:45:22.124Z,101829.93
2018-09-24T12:47:55.760Z,101834.34
2018-09-24T12:50:29.523Z,101837.11
2018-09-24T12:53:03.018Z,101846.33
2018-09-24T12:55:43.678Z,101849.18
2018-09-24T12:58:20.720Z,101843.70
2018-09-24T13:00:58.842Z,101839.49
2018-09-24T13:03:33.346Z,101858.38
2018-09-24T13:06:07.807Z,101851.90
2018-09-24T13:08:41.467Z,101852.56
2018-09-24T13:11:15.575Z,101855.64
2018-09-24T13:13:49.508Z,101853.72
2018-09-24T13:16:23.175Z,101852.83
2018-09-24T13:18:56.855Z,101849.44
2018-09-24T13:21:30.489Z,101838.99
2018-09-24T13:24:04.167Z,101834.59
2018-09-24T13:26:44.434Z,101841.11
2018-09-24T13:29:18.143Z,101845.65
2018-09-24T13:31:51.840Z,101836.97
2018-09-24T13:34:25.620Z,101822.97
2018-09-24T13:37:02.857Z,101827.53
2018-09-24T13:39:36.552Z,101823.97
2018-09-24T13:42:10.228Z,101820.45
2018-09-24T13:44:44.028Z,101823.96
2018-09-24T13:47:17.776Z,101815.33
2018-09-24T13:49:52.737Z,101830.33
2018-09-24T13:52:31.638Z,101814.72
2018-09-24T13:55:06.311Z,101826.41
2018-09-24T13:57:39.862Z,101831.36
2018-09-24T14:00:13.884Z,101843.58
2018-09-24T14:02:47.383Z,101840.19
2018-09-24T14:05:21.089Z,101854.23
2018-09-24T14:07:54.534Z,101865.73
2018-09-24T14:10:28.924Z,101876.63
2018-09-24T14:13:02.611Z,101874.31
2018-09-24T14:15:36.291Z,101886.04
2018-09-24T14:18:11.463Z,101895.73
2018-09-24T14:20:46.222Z,101897.89
2018-09-24T14:23:19.866Z,101891.47
2018-09-24T14:25:53.559Z,101880.61
2018-09-24T14:28:27.249Z,101887.27
2018-09-24T14:31:01.113Z,101880.63
2018-09-24T14:33:34.613Z,101885.51
2018-09-24T14:36:08.098Z,101876.91
2018-09-24T14:38:41.593Z,101882.18
2018-09-24T14:41:15.111Z,101885.05
2018-09-24T14:43:48.709Z,101884.87
2018-09-24T14:46:22.410Z,101884.77
2018-09-24T14:48:56.038Z,101871.94
2018-09-24T14:51:29.880Z,101881.78
2018-09-24T14:54:03.400Z,101879.23
2018-09-24T14:56:37.123Z,101877.29
2018-09-24T14:59:10.617Z,101878.34
2018-09-24T15:01:44.445Z,101877.19
2018-09-24T15:04:18.086Z,101878.51
2018-09-24T15:06:51.548Z,101879.61
2018-09-24T15:09:25.268Z,101876.30
2018-09-24T15:11:59.018Z,101874.55
2018-09-24T15:14:32.438Z,101874.59
2018-09-24T15:17:06.099Z,101869.58
2018-09-24T15:19:40.524Z,101881.37
2018-09-24T15:22:14.039Z,101873.09
2018-09-24T15:24:47.671Z,101877.50
2018-09-24T15:27:21.290Z,101878.38
2018-09-24T15:29:55.038Z,101869.97
2018-09-24T15:32:33.391Z,101884.50
2018-09-24T15:35:08.052Z,101884.45
2018-09-24T15:37:44.470Z,101876.84
2018-09-24T15:40:20.387Z,101881.47
2018-09-24T15:42:56.438Z,101876.97
2018-09-24T15:45:29.938Z,101883.88
2018-09-24T15:48:03.536Z,101878.06
2018-09-24T15:50:37.276Z,101876.05
2018-09-24T15:53:11.257Z,101885.59
2018-09-24T15:55:44.739Z,101894.68
2018-09-24T15:58:18.592Z,101918.74
2018-09-24T16:00:52.067Z,101931.73
2018-09-24T16:03:25.640Z,101928.66
2018-09-24T16:05:59.106Z,101922.41
2018-09-24T16:08:32.761Z,101936.97
2018-09-24T16:11:07.023Z,101951.66
2018-09-24T16:13:40.418Z,101950.31
2018-09-24T16:16:13.922Z,101967.55
2018-09-24T16:18:47.711Z,101985.03
2018-09-24T16:21:21.756Z,102003.02
2018-09-24T16:23:55.424Z,102003.22
2018-09-24T16:26:30.689Z,101988.31
2018-09-24T16:29:04.167Z,101984.01
2018-09-24T16:31:37.924Z,102000.97
2018-09-24T16:34:11.776Z,101993.25
2018-09-24T16:36:45.255Z,101987.16
2018-09-24T16:39:18.838Z,101993.20
2018-09-24T16:41:52.504Z,101998.19
2018-09-24T16:44:25.955Z,101997.13
2018-09-24T16:46:59.656Z,102006.09
2018-09-24T16:49:33.600Z,102009.47
2018-09-24T16:52:07.120Z,102009.63
2018-09-24T16:54:40.618Z,102002.38
2018-09-24T16:57:14.226Z,102011.26
2018-09-24T16:59:48.075Z,102008.10
2018-09-24T17:02:21.918Z,102016.72
2018-09-24T17:04:55.673Z,102013.47
2018-09-24T17:07:29.575Z,102015.34
2018-09-24T17:10:03.310Z,102024.91
2018-09-24T17:12:37.089Z,102029.15
2018-09-24T17:15:12.021Z,102024.80
2018-09-24T17:17:45.536Z,102034.08
2018-09-24T17:20:18.979Z,102022.64
2018-09-24T17:22:52.505Z,102025.05
2018-09-24T17:25:26.075Z,102028.06
2018-09-24T17:27:59.585Z,102038.13
2018-09-24T17:30:34.081Z,102033.73
2018-09-24T17:33:07.563Z,102032.16
2018-09-24T17:35:41.041Z,102034.88
2018-09-24T17:38:14.435Z,102036.81
2018-09-24T17:40:47.918Z,102034.56
2018-09-24T17:43:21.462Z,102041.39
2018-09-24T17:45:55.796Z,102052.43
2018-09-24T17:48:29.297Z,102047.60
2018-09-24T17:51:03.143Z,102052.84
2018-09-24T17:53:36.700Z,102060.08
2018-09-24T17:56:10.294Z,102058.86
2018-09-24T17:58:43.686Z,102068.71
2018-09-24T18:01:17.182Z,102076.58
2018-09-24T18:03:50.705Z,102074.48
2018-09-24T18:06:24.402Z,102078.50
2018-09-24T18:08:57.917Z,102085.67
2018-09-24T18:11:31.724Z,102089.48
2018-09-24T18:14:05.325Z,102093.92
2018-09-24T18:16:38.756Z,102101.09
2018-09-24T18:19:12.444Z,102104.27
2018-09-24T18:21:46.088Z,102108.92
2018-09-24T18:24:19.505Z,102107.62
2018-09-24T18:26:53.142Z,102105.66
2018-09-24T18:29:26.605Z,102115.83
2018-09-24T18:31:59.947Z,102118.74
2018-09-24T18:34:33.622Z,102120.48
2018-09-24T18:37:07.550Z,102122.37
2018-09-24T18:39:40.953Z,102126.64
2018-09-24T18:42:14.438Z,102125.47
2018-09-24T18:44:48.033Z,102126.97
2018-09-24T18:47:21.663Z,102128.09
2018-09-24T18:49:55.212Z,102127.36
2018-09-24T18:52:28.623Z,102126.97
2018-09-24T18:55:02.010Z,102132.81
2018-09-24T18:57:35.413Z,102136.34
2018-09-24T19:00:08.920Z,102138.11
2018-09-24T19:02:42.442Z,102137.13
2018-09-24T19:05:15.856Z,102135.95
2018-09-24T19:07:49.406Z,102137.73
2018-09-24T19:10:23.045Z,102141.99
2018-09-24T19:12:56.648Z,102144.48
2018-09-24T19:15:30.110Z,102143.88
2018-09-24T19:18:03.648Z,102143.55
2018-09-24T19:20:37.100Z,102147.81
2018-09-24T19:23:10.652Z,102145.27
2018-09-24T19:25:44.140Z,102144.72
2018-09-24T19:28:17.595Z,102145.92
2018-09-24T19:30:51.090Z,102145.98
2018-09-24T19:33:24.548Z,102145.05
2018-09-24T19:36:05.046Z,102154.69
2018-09-24T19:38:38.761Z,102156.00
2018-09-24T19:41:12.421Z,102157.12
2018-09-24T19:43:45.934Z,102164.47
2018-09-24T19:46:19.433Z,102169.44
2018-09-24T19:48:52.992Z,102165.83
2018-09-24T19:51:26.352Z,102166.30
2018-09-24T19:53:59.776Z,102168.59
2018-09-24T19:56:33.580Z,102169.95
2018-09-24T19:59:07.375Z,102171.34
2018-09-24T20:01:40.822Z,102171.27
2018-09-24T20:04:14.310Z,102163.48
2018-09-24T20:06:47.771Z,102173.97
2018-09-24T20:09:21.313Z,102174.86
2018-09-24T20:11:54.840Z,102176.26
2018-09-24T20:14:28.510Z,102179.34
2018-09-24T20:17:02.171Z,102184.26
2018-09-24T20:19:35.673Z,102182.29
2018-09-24T20:22:10.388Z,102186.27
2018-09-24T20:24:43.931Z,102181.63
2018-09-24T20:27:17.393Z,102193.80
2018-09-24T20:29:50.935Z,102191.27
2018-09-24T20:32:24.436Z,102192.58
2018-09-24T20:34:57.916Z,102196.55
2018-09-24T20:37:31.485Z,102194.06
2018-09-24T20:40:05.147Z,102204.30
2018-09-24T20:42:38.678Z,102206.17
2018-09-24T20:45:12.633Z,102209.53
2018-09-24T20:47:46.166Z,102210.95
2018-09-24T20:50:19.730Z,102214.88
2018-09-24T20:52:53.262Z,102223.08
2018-09-24T20:55:26.678Z,102224.77
2018-09-24T20:58:00.156Z,102232.76
2018-09-24T21:00:33.505Z,102240.88
2018-09-24T21:03:07.221Z,102245.47
2018-09-24T21:05:40.817Z,102251.61
2018-09-24T21:08:14.401Z,102251.69
2018-09-24T21:10:47.910Z,102253.89
2018-09-24T21:13:21.340Z,102262.09
2018-09-24T21:15:54.760Z,102264.03
2018-09-24T21:18:28.273Z,102265.42
2018-09-24T21:21:01.681Z,102271.30
2018-09-24T21:23:35.450Z,102269.52
2018-09-24T21:26:08.879Z,102275.27
2018-09-24T21:28:42.432Z,102276.66
2018-09-24T21:31:15.890Z,102285.02
2018-09-24T21:33:49.475Z,102286.11
2018-09-24T21:36:23.017Z,102297.78
2018-09-24T21:38:56.802Z,102293.05
2018-09-24T21:41:30.300Z,102286.63
2018-09-24T21:44:03.988Z,102290.16
2018-09-24T21:46:37.614Z,102295.45
2018-09-24T21:49:10.960Z,102300.13
2018-09-24T21:51:44.340Z,102301.02
2018-09-24T21:54:17.849Z,102299.84
2018-09-24T21:56:51.453Z,102296.08
2018-09-24T21:59:24.901Z,102299.66
2018-09-24T22:01:58.486Z,102292.73
2018-09-24T22:04:31.926Z,102294.72
2018-09-24T22:07:05.242Z,102298.89
2018-09-24T22:09:40.266Z,102303.32
2018-09-24T22:12:13.805Z,102302.88
2018-09-24T22:14:47.465Z,102303.77
2018-09-24T22:17:21.045Z,102301.15
2018-09-24T22:19:54.613Z,102310.38
2018-09-24T22:22:28.120Z,102310.89
2018-09-24T22:25:01.850Z,102306.00
2018-09-24T22:27:35.433Z,102313.09
2018-09-24T22:30:08.835Z,102315.16
2018-09-24T22:32:42.296Z,102314.43
2018-09-24T22:35:15.780Z,102313.46
2018-09-24T22:37:49.188Z,102312.77
2018-09-24T22:40:22.596Z,102315.85
2018-09-24T22:42:56.103Z,102316.39
2018-09-24T22:45:29.556Z,102324.25
2018-09-24T22:48:03.059Z,102326.48
2018-09-24T22:50:37.068Z,102330.67
2018-09-24T22:53:10.586Z,102333.45
2018-09-24T22:55:44.240Z,102336.41
2018-09-24T22:58:17.700Z,102337.09
2018-09-24T23:00:51.188Z,102339.48
2018-09-24T23:03:24.436Z,102339.52
2018-09-24T23:05:57.901Z,102336.55
2018-09-24T23:08:31.361Z,102342.83
2018-09-24T23:11:04.954Z,102342.44
2018-09-24T23:13:38.464Z,102342.55
2018-09-24T23:16:11.929Z,102348.74
2018-09-24T23:18:45.333Z,102350.52
2018-09-24T23:21:18.739Z,102345.43
2018-09-24T23:23:52.293Z,102353.92
2018-09-24T23:26:25.697Z,102353.19
2018-09-24T23:28:59.101Z,102353.68
2018-09-24T23:31:32.539Z,102351.04
2018-09-24T23:34:05.924Z,102357.61
2018-09-24T23:36:39.425Z,102355.70
2018-09-24T23:39:13.659Z,102357.58
2018-09-24T23:41:47.447Z,102360.69
2018-09-24T23:44:20.790Z,102356.48
2018-09-24T23:46:54.306Z,102357.47
2018-09-24T23:49:27.838Z,102355.20
2018-09-24T23:52:01.498Z,102360.49
2018-09-24T23:54:34.920Z,102360.10
2018-09-24T23:57:08.398Z,102355.27
2018-09-24T23:59:41.733Z,102356.35
